sensor_id;sensor_type;location;lat;lon;timestamp;P1;durP1;ratioP1;P2;durP2;ratioP2
27666;SDS011;15074;50.940;5.282;2023-05-14T00:01:32;12.73;;;11.82;;
27666;SDS011;15074;50.940;5.282;2023-05-14T00:03:58;11.95;;;11.13;;
27666;SDS011;15074;50.940;5.282;2023-05-14T00:06:24;12.02;;;11.23;;
27666;SDS011;15074;50.940;5.282;2023-05-14T00:08:50;14.18;;;13.07;;
27666;SDS011;15074;50.940;5.282;2023-05-14T00:14:38;14.10;;;13.00;;
27666;SDS011;15074;50.940;5.282;2023-05-14T04:36:17;48.88;;;32.53;;
27666;SDS011;15074;50.940;5.282;2023-05-14T04:38:43;51.63;;;34.78;;
27666;SDS011;15074;50.940;5.282;2023-05-14T04:41:09;48.38;;;32.83;;
27666;SDS011;15074;50.940;5.282;2023-05-14T04:43:35;40.13;;;30.77;;
27666;SDS011;15074;50.940;5.282;2023-05-14T04:46:00;45.35;;;31.80;;
27666;SDS011;15074;50.940;5.282;2023-05-14T04:48:26;52.70;;;34.08;;
27666;SDS011;15074;50.940;5.282;2023-05-14T04:50:52;47.95;;;31.80;;
27666;SDS011;15074;50.940;5.282;2023-05-14T04:53:17;46.78;;;32.50;;
27666;SDS011;15074;50.940;5.282;2023-05-14T04:55:43;44.80;;;32.42;;
27666;SDS011;15074;50.940;5.282;2023-05-14T04:58:09;46.50;;;32.47;;
27666;SDS011;15074;50.940;5.282;2023-05-14T05:00:34;44.58;;;31.83;;
27666;SDS011;15074;50.940;5.282;2023-05-14T05:03:00;42.92;;;32.03;;
27666;SDS011;15074;50.940;5.282;2023-05-14T05:05:25;42.85;;;31.27;;
27666;SDS011;15074;50.940;5.282;2023-05-14T05:07:51;38.85;;;30.83;;
27666;SDS011;15074;50.940;5.282;2023-05-14T05:10:17;39.05;;;31.05;;
27666;SDS011;15074;50.940;5.282;2023-05-14T05:12:42;36.95;;;30.63;;
27666;SDS011;15074;50.940;5.282;2023-05-14T05:15:08;35.92;;;28.67;;
27666;SDS011;15074;50.940;5.282;2023-05-14T05:17:34;40.70;;;30.63;;
27666;SDS011;15074;50.940;5.282;2023-05-14T05:20:00;35.30;;;28.85;;
27666;SDS011;15074;50.940;5.282;2023-05-14T05:22:26;36.88;;;29.65;;
27666;SDS011;15074;50.940;5.282;2023-05-14T05:24:52;35.35;;;28.70;;
27666;SDS011;15074;50.940;5.282;2023-05-14T05:27:18;33.22;;;27.92;;
27666;SDS011;15074;50.940;5.282;2023-05-14T05:29:45;37.75;;;30.02;;
27666;SDS011;15074;50.940;5.282;2023-05-14T05:32:11;31.27;;;28.05;;
27666;SDS011;15074;50.940;5.282;2023-05-14T05:34:37;34.90;;;29.20;;
27666;SDS011;15074;50.940;5.282;2023-05-14T05:37:03;38.05;;;28.80;;
27666;SDS011;15074;50.940;5.282;2023-05-14T05:39:29;31.80;;;28.40;;
27666;SDS011;15074;50.940;5.282;2023-05-14T05:41:58;31.20;;;27.90;;
27666;SDS011;15074;50.940;5.282;2023-05-14T05:44:26;34.88;;;28.52;;
27666;SDS011;15074;50.940;5.282;2023-05-14T05:46:52;30.50;;;26.95;;
27666;SDS011;15074;50.940;5.282;2023-05-14T05:49:20;30.00;;;26.95;;
27666;SDS011;15074;50.940;5.282;2023-05-14T05:51:45;35.33;;;26.42;;
27666;SDS011;15074;50.940;5.282;2023-05-14T05:54:11;29.27;;;25.85;;
27666;SDS011;15074;50.940;5.282;2023-05-14T05:56:36;30.58;;;27.30;;
27666;SDS011;15074;50.940;5.282;2023-05-14T05:59:02;30.88;;;27.77;;
27666;SDS011;15074;50.940;5.282;2023-05-14T06:01:28;30.10;;;26.88;;
27666;SDS011;15074;50.940;5.282;2023-05-14T06:03:54;31.50;;;27.63;;
27666;SDS011;15074;50.940;5.282;2023-05-14T06:06:20;31.48;;;27.58;;
27666;SDS011;15074;50.940;5.282;2023-05-14T06:08:46;30.92;;;27.65;;
27666;SDS011;15074;50.940;5.282;2023-05-14T06:11:12;33.30;;;27.92;;
27666;SDS011;15074;50.940;5.282;2023-05-14T06:13:38;30.67;;;27.55;;
27666;SDS011;15074;50.940;5.282;2023-05-14T06:16:03;31.77;;;28.23;;
27666;SDS011;15074;50.940;5.282;2023-05-14T06:18:29;31.58;;;28.23;;
27666;SDS011;15074;50.940;5.282;2023-05-14T06:20:55;33.20;;;27.45;;
27666;SDS011;15074;50.940;5.282;2023-05-14T06:23:21;32.78;;;29.15;;
27666;SDS011;15074;50.940;5.282;2023-05-14T06:25:48;31.33;;;28.17;;
27666;SDS011;15074;50.940;5.282;2023-05-14T06:28:14;32.25;;;29.02;;
27666;SDS011;15074;50.940;5.282;2023-05-14T06:30:40;31.70;;;28.27;;
27666;SDS011;15074;50.940;5.282;2023-05-14T06:33:06;30.70;;;27.42;;
27666;SDS011;15074;50.940;5.282;2023-05-14T06:35:31;29.73;;;26.63;;
27666;SDS011;15074;50.940;5.282;2023-05-14T06:37:58;29.02;;;25.95;;
27666;SDS011;15074;50.940;5.282;2023-05-14T06:40:24;29.83;;;26.65;;
27666;SDS011;15074;50.940;5.282;2023-05-14T06:42:50;30.52;;;27.45;;
27666;SDS011;15074;50.940;5.282;2023-05-14T06:45:15;28.63;;;25.90;;
27666;SDS011;15074;50.940;5.282;2023-05-14T06:47:41;28.10;;;25.17;;
27666;SDS011;15074;50.940;5.282;2023-05-14T06:50:06;26.85;;;24.45;;
27666;SDS011;15074;50.940;5.282;2023-05-14T06:52:32;26.70;;;24.38;;
27666;SDS011;15074;50.940;5.282;2023-05-14T06:54:58;26.42;;;24.40;;
27666;SDS011;15074;50.940;5.282;2023-05-14T06:57:24;26.23;;;23.90;;
27666;SDS011;15074;50.940;5.282;2023-05-14T06:59:49;25.80;;;23.75;;
27666;SDS011;15074;50.940;5.282;2023-05-14T07:02:15;25.75;;;23.40;;
27666;SDS011;15074;50.940;5.282;2023-05-14T07:04:41;26.13;;;23.40;;
27666;SDS011;15074;50.940;5.282;2023-05-14T07:07:06;25.17;;;23.20;;
27666;SDS011;15074;50.940;5.282;2023-05-14T07:09:34;25.52;;;23.33;;
27666;SDS011;15074;50.940;5.282;2023-05-14T07:12:00;28.17;;;23.83;;
27666;SDS011;15074;50.940;5.282;2023-05-14T07:14:25;25.38;;;22.92;;
27666;SDS011;15074;50.940;5.282;2023-05-14T07:16:51;26.83;;;23.95;;
27666;SDS011;15074;50.940;5.282;2023-05-14T07:19:17;24.77;;;22.75;;
27666;SDS011;15074;50.940;5.282;2023-05-14T07:21:42;26.77;;;24.10;;
27666;SDS011;15074;50.940;5.282;2023-05-14T07:24:08;25.08;;;22.65;;
27666;SDS011;15074;50.940;5.282;2023-05-14T07:26:33;25.40;;;23.33;;
27666;SDS011;15074;50.940;5.282;2023-05-14T07:28:59;25.83;;;23.15;;
27666;SDS011;15074;50.940;5.282;2023-05-14T07:31:25;35.38;;;24.85;;
27666;SDS011;15074;50.940;5.282;2023-05-14T07:33:50;25.83;;;23.65;;
27666;SDS011;15074;50.940;5.282;2023-05-14T07:36:16;25.38;;;23.10;;
27666;SDS011;15074;50.940;5.282;2023-05-14T07:38:42;26.75;;;24.02;;
27666;SDS011;15074;50.940;5.282;2023-05-14T07:41:07;26.65;;;24.15;;
27666;SDS011;15074;50.940;5.282;2023-05-14T07:43:35;26.23;;;23.55;;
27666;SDS011;15074;50.940;5.282;2023-05-14T07:46:02;26.48;;;21.95;;
27666;SDS011;15074;50.940;5.282;2023-05-14T07:48:28;25.55;;;23.30;;
27666;SDS011;15074;50.940;5.282;2023-05-14T07:50:54;26.13;;;23.65;;
27666;SDS011;15074;50.940;5.282;2023-05-14T07:53:19;24.58;;;22.10;;
27666;SDS011;15074;50.940;5.282;2023-05-14T07:55:47;26.35;;;23.15;;
27666;SDS011;15074;50.940;5.282;2023-05-14T07:58:13;22.63;;;20.92;;
27666;SDS011;15074;50.940;5.282;2023-05-14T08:00:39;22.65;;;20.98;;
27666;SDS011;15074;50.940;5.282;2023-05-14T08:03:04;23.58;;;21.42;;
27666;SDS011;15074;50.940;5.282;2023-05-14T08:05:30;23.35;;;21.48;;
27666;SDS011;15074;50.940;5.282;2023-05-14T08:07:56;23.45;;;21.40;;
27666;SDS011;15074;50.940;5.282;2023-05-14T08:10:22;21.70;;;20.20;;
27666;SDS011;15074;50.940;5.282;2023-05-14T08:12:48;21.58;;;19.90;;
27666;SDS011;15074;50.940;5.282;2023-05-14T08:15:15;27.38;;;20.45;;
27666;SDS011;15074;50.940;5.282;2023-05-14T08:17:41;21.23;;;19.73;;
27666;SDS011;15074;50.940;5.282;2023-05-14T08:20:07;22.85;;;21.25;;
27666;SDS011;15074;50.940;5.282;2023-05-14T08:22:35;22.38;;;20.63;;
27666;SDS011;15074;50.940;5.282;2023-05-14T08:25:01;22.30;;;20.65;;
27666;SDS011;15074;50.940;5.282;2023-05-14T08:27:28;22.63;;;20.75;;
27666;SDS011;15074;50.940;5.282;2023-05-14T08:29:53;22.27;;;20.58;;
27666;SDS011;15074;50.940;5.282;2023-05-14T08:32:19;22.23;;;20.30;;
27666;SDS011;15074;50.940;5.282;2023-05-14T08:34:45;20.95;;;19.27;;
27666;SDS011;15074;50.940;5.282;2023-05-14T08:37:11;21.20;;;19.25;;
27666;SDS011;15074;50.940;5.282;2023-05-14T08:39:36;20.55;;;18.77;;
27666;SDS011;15074;50.940;5.282;2023-05-14T08:42:02;18.77;;;17.58;;
27666;SDS011;15074;50.940;5.282;2023-05-14T08:47:11;17.13;;;16.02;;
27666;SDS011;15074;50.940;5.282;2023-05-14T08:49:43;15.70;;;14.63;;
27666;SDS011;15074;50.940;5.282;2023-05-14T08:52:11;15.93;;;14.52;;
27666;SDS011;15074;50.940;5.282;2023-05-14T08:54:37;15.85;;;14.57;;
27666;SDS011;15074;50.940;5.282;2023-05-14T08:57:04;15.88;;;14.75;;
27666;SDS011;15074;50.940;5.282;2023-05-14T08:59:33;15.15;;;14.15;;
27666;SDS011;15074;50.940;5.282;2023-05-14T09:02:00;16.77;;;15.25;;
27666;SDS011;15074;50.940;5.282;2023-05-14T09:04:28;16.73;;;15.38;;
27666;SDS011;15074;50.940;5.282;2023-05-14T09:09:24;15.80;;;14.60;;
27666;SDS011;15074;50.940;5.282;2023-05-14T09:11:51;15.95;;;14.85;;
27666;SDS011;15074;50.940;5.282;2023-05-14T09:14:18;16.13;;;14.93;;
27666;SDS011;15074;50.940;5.282;2023-05-14T09:16:44;16.23;;;15.15;;
27666;SDS011;15074;50.940;5.282;2023-05-14T09:19:11;14.68;;;13.57;;
27666;SDS011;15074;50.940;5.282;2023-05-14T09:21:37;14.90;;;13.77;;
27666;SDS011;15074;50.940;5.282;2023-05-14T09:24:04;14.88;;;13.90;;
27666;SDS011;15074;50.940;5.282;2023-05-14T09:26:34;14.55;;;13.55;;
27666;SDS011;15074;50.940;5.282;2023-05-14T09:29:00;14.77;;;13.77;;
27666;SDS011;15074;50.940;5.282;2023-05-14T09:31:31;14.30;;;13.13;;
27666;SDS011;15074;50.940;5.282;2023-05-14T09:33:57;14.32;;;13.02;;
27666;SDS011;15074;50.940;5.282;2023-05-14T09:36:24;15.00;;;13.73;;
27666;SDS011;15074;50.940;5.282;2023-05-14T09:38:51;23.73;;;13.63;;
27666;SDS011;15074;50.940;5.282;2023-05-14T09:41:20;13.75;;;12.75;;
27666;SDS011;15074;50.940;5.282;2023-05-14T09:43:47;14.23;;;13.43;;
27666;SDS011;15074;50.940;5.282;2023-05-14T09:46:13;15.47;;;14.37;;
27666;SDS011;15074;50.940;5.282;2023-05-14T09:48:39;17.08;;;15.88;;
27666;SDS011;15074;50.940;5.282;2023-05-14T09:51:05;15.32;;;14.20;;
27666;SDS011;15074;50.940;5.282;2023-05-14T09:53:31;27.40;;;25.40;;
27666;SDS011;15074;50.940;5.282;2023-05-14T09:55:58;15.93;;;14.80;;
27666;SDS011;15074;50.940;5.282;2023-05-14T09:58:24;17.42;;;15.93;;
27666;SDS011;15074;50.940;5.282;2023-05-14T10:00:50;15.88;;;14.63;;
27666;SDS011;15074;50.940;5.282;2023-05-14T10:03:19;18.30;;;16.98;;
27666;SDS011;15074;50.940;5.282;2023-05-14T10:05:48;13.68;;;12.68;;
27666;SDS011;15074;50.940;5.282;2023-05-14T10:08:23;26.53;;;21.83;;
27666;SDS011;15074;50.940;5.282;2023-05-14T10:10:52;13.73;;;12.73;;
27666;SDS011;15074;50.940;5.282;2023-05-14T10:13:22;13.77;;;12.68;;
27666;SDS011;15074;50.940;5.282;2023-05-14T10:16:02;14.65;;;13.52;;
27666;SDS011;15074;50.940;5.282;2023-05-14T10:18:30;13.85;;;12.95;;
27666;SDS011;15074;50.940;5.282;2023-05-14T10:21:04;13.00;;;12.18;;
27666;SDS011;15074;50.940;5.282;2023-05-14T10:23:32;14.40;;;13.00;;
27666;SDS011;15074;50.940;5.282;2023-05-14T10:25:58;18.58;;;17.27;;
27666;SDS011;15074;50.940;5.282;2023-05-14T10:28:25;30.55;;;28.38;;
27666;SDS011;15074;50.940;5.282;2023-05-14T10:30:51;14.70;;;13.63;;
27666;SDS011;15074;50.940;5.282;2023-05-14T10:33:18;13.80;;;12.85;;
27666;SDS011;15074;50.940;5.282;2023-05-14T10:35:52;13.88;;;12.88;;
27666;SDS011;15074;50.940;5.282;2023-05-14T10:38:29;14.93;;;13.95;;
27666;SDS011;15074;50.940;5.282;2023-05-14T10:41:09;13.90;;;12.73;;
27666;SDS011;15074;50.940;5.282;2023-05-14T10:43:36;14.43;;;13.32;;
27666;SDS011;15074;50.940;5.282;2023-05-14T10:46:03;12.00;;;11.20;;
27666;SDS011;15074;50.940;5.282;2023-05-14T10:48:30;12.23;;;11.25;;
27666;SDS011;15074;50.940;5.282;2023-05-14T10:50:56;10.95;;;10.25;;
27666;SDS011;15074;50.940;5.282;2023-05-14T10:53:32;11.43;;;10.60;;
27666;SDS011;15074;50.940;5.282;2023-05-14T10:56:07;11.60;;;10.65;;
27666;SDS011;15074;50.940;5.282;2023-05-14T10:58:35;12.30;;;11.30;;
27666;SDS011;15074;50.940;5.282;2023-05-14T11:01:08;12.13;;;11.35;;
27666;SDS011;15074;50.940;5.282;2023-05-14T11:03:42;15.93;;;11.85;;
27666;SDS011;15074;50.940;5.282;2023-05-14T11:06:10;10.55;;;9.85;;
27666;SDS011;15074;50.940;5.282;2023-05-14T11:08:37;8.85;;;8.25;;
27666;SDS011;15074;50.940;5.282;2023-05-14T11:11:03;10.43;;;9.67;;
27666;SDS011;15074;50.940;5.282;2023-05-14T11:13:30;10.65;;;9.68;;
27666;SDS011;15074;50.940;5.282;2023-05-14T11:15:58;10.55;;;9.85;;
27666;SDS011;15074;50.940;5.282;2023-05-14T11:18:29;10.77;;;9.88;;
27666;SDS011;15074;50.940;5.282;2023-05-14T11:21:01;9.80;;;9.10;;
27666;SDS011;15074;50.940;5.282;2023-05-14T11:23:27;10.30;;;9.60;;
27666;SDS011;15074;50.940;5.282;2023-05-14T11:25:52;10.65;;;9.38;;
27666;SDS011;15074;50.940;5.282;2023-05-14T11:28:20;11.00;;;10.05;;
27666;SDS011;15074;50.940;5.282;2023-05-14T11:30:50;11.63;;;10.82;;
27666;SDS011;15074;50.940;5.282;2023-05-14T11:33:17;12.43;;;11.52;;
27666;SDS011;15074;50.940;5.282;2023-05-14T11:35:44;12.07;;;11.27;;
27666;SDS011;15074;50.940;5.282;2023-05-14T11:38:17;11.80;;;11.00;;
27666;SDS011;15074;50.940;5.282;2023-05-14T11:40:50;11.18;;;10.13;;
27666;SDS011;15074;50.940;5.282;2023-05-14T11:43:19;10.52;;;9.73;;
27666;SDS011;15074;50.940;5.282;2023-05-14T11:45:49;11.07;;;10.27;;
27666;SDS011;15074;50.940;5.282;2023-05-14T11:48:16;162.15;;;35.97;;
27666;SDS011;15074;50.940;5.282;2023-05-14T11:51:01;10.70;;;9.95;;
27666;SDS011;15074;50.940;5.282;2023-05-14T11:53:29;12.10;;;11.30;;
27666;SDS011;15074;50.940;5.282;2023-05-14T11:55:55;12.37;;;11.50;;
27666;SDS011;15074;50.940;5.282;2023-05-14T11:58:24;10.82;;;10.13;;
27666;SDS011;15074;50.940;5.282;2023-05-14T12:00:50;11.35;;;10.65;;
27666;SDS011;15074;50.940;5.282;2023-05-14T12:03:20;10.40;;;9.67;;
27666;SDS011;15074;50.940;5.282;2023-05-14T12:05:59;10.90;;;10.07;;
27666;SDS011;15074;50.940;5.282;2023-05-14T12:08:27;10.48;;;9.68;;
27666;SDS011;15074;50.940;5.282;2023-05-14T12:10:54;11.32;;;10.52;;
27666;SDS011;15074;50.940;5.282;2023-05-14T12:15:53;12.18;;;11.25;;
27666;SDS011;15074;50.940;5.282;2023-05-14T12:18:21;13.27;;;11.00;;
27666;SDS011;15074;50.940;5.282;2023-05-14T12:20:49;12.18;;;11.15;;
27666;SDS011;15074;50.940;5.282;2023-05-14T12:23:16;11.00;;;9.88;;
27666;SDS011;15074;50.940;5.282;2023-05-14T12:25:49;12.48;;;11.30;;
27666;SDS011;15074;50.940;5.282;2023-05-14T12:28:16;13.38;;;11.23;;
27666;SDS011;15074;50.940;5.282;2023-05-14T12:30:42;12.25;;;11.35;;
27666;SDS011;15074;50.940;5.282;2023-05-14T12:33:09;13.25;;;11.48;;
27666;SDS011;15074;50.940;5.282;2023-05-14T12:35:34;12.07;;;10.73;;
27666;SDS011;15074;50.940;5.282;2023-05-14T12:38:01;13.07;;;11.82;;
27666;SDS011;15074;50.940;5.282;2023-05-14T12:40:27;12.13;;;10.90;;
27666;SDS011;15074;50.940;5.282;2023-05-14T12:42:53;11.35;;;10.43;;
27666;SDS011;15074;50.940;5.282;2023-05-14T12:45:19;11.70;;;10.80;;
27666;SDS011;15074;50.940;5.282;2023-05-14T12:47:44;10.73;;;9.93;;
27666;SDS011;15074;50.940;5.282;2023-05-14T12:50:10;13.38;;;10.77;;
27666;SDS011;15074;50.940;5.282;2023-05-14T12:52:36;11.88;;;10.07;;
27666;SDS011;15074;50.940;5.282;2023-05-14T12:55:02;11.00;;;10.20;;
27666;SDS011;15074;50.940;5.282;2023-05-14T12:57:27;11.98;;;11.07;;
27666;SDS011;15074;50.940;5.282;2023-05-14T12:59:55;12.40;;;11.60;;
27666;SDS011;15074;50.940;5.282;2023-05-14T13:02:21;12.73;;;11.50;;
27666;SDS011;15074;50.940;5.282;2023-05-14T13:04:46;11.07;;;9.95;;
27666;SDS011;15074;50.940;5.282;2023-05-14T13:07:12;10.38;;;9.48;;
27666;SDS011;15074;50.940;5.282;2023-05-14T13:09:38;10.38;;;9.57;;
27666;SDS011;15074;50.940;5.282;2023-05-14T13:12:04;11.75;;;10.90;;
27666;SDS011;15074;50.940;5.282;2023-05-14T13:14:30;12.45;;;11.50;;
27666;SDS011;15074;50.940;5.282;2023-05-14T13:16:55;12.52;;;11.43;;
27666;SDS011;15074;50.940;5.282;2023-05-14T13:19:21;13.52;;;12.43;;
27666;SDS011;15074;50.940;5.282;2023-05-14T13:21:47;12.38;;;11.27;;
27666;SDS011;15074;50.940;5.282;2023-05-14T13:24:12;8.60;;;7.85;;
27666;SDS011;15074;50.940;5.282;2023-05-14T13:26:39;9.00;;;8.35;;
27666;SDS011;15074;50.940;5.282;2023-05-14T13:29:04;9.93;;;9.25;;
27666;SDS011;15074;50.940;5.282;2023-05-14T13:31:30;9.48;;;8.63;;
27666;SDS011;15074;50.940;5.282;2023-05-14T13:33:56;9.55;;;8.75;;
27666;SDS011;15074;50.940;5.282;2023-05-14T13:36:23;8.83;;;8.17;;
27666;SDS011;15074;50.940;5.282;2023-05-14T13:38:49;8.68;;;7.88;;
27666;SDS011;15074;50.940;5.282;2023-05-14T13:41:14;8.88;;;8.27;;
27666;SDS011;15074;50.940;5.282;2023-05-14T13:43:40;9.93;;;9.02;;
27666;SDS011;15074;50.940;5.282;2023-05-14T13:46:06;8.77;;;7.80;;
27666;SDS011;15074;50.940;5.282;2023-05-14T13:48:31;8.60;;;7.88;;
27666;SDS011;15074;50.940;5.282;2023-05-14T13:50:58;8.25;;;7.45;;
27666;SDS011;15074;50.940;5.282;2023-05-14T13:53:24;7.50;;;6.90;;
27666;SDS011;15074;50.940;5.282;2023-05-14T13:55:50;7.57;;;6.88;;
27666;SDS011;15074;50.940;5.282;2023-05-14T13:58:22;7.60;;;6.93;;
27666;SDS011;15074;50.940;5.282;2023-05-14T14:00:49;6.57;;;6.00;;
27666;SDS011;15074;50.940;5.282;2023-05-14T14:03:15;5.97;;;5.45;;
27666;SDS011;15074;50.940;5.282;2023-05-14T14:05:41;7.57;;;5.55;;
27666;SDS011;15074;50.940;5.282;2023-05-14T14:08:07;6.95;;;6.30;;
27666;SDS011;15074;50.940;5.282;2023-05-14T14:10:32;6.38;;;5.78;;
27666;SDS011;15074;50.940;5.282;2023-05-14T14:12:58;6.18;;;5.68;;
27666;SDS011;15074;50.940;5.282;2023-05-14T14:15:24;6.75;;;6.07;;
27666;SDS011;15074;50.940;5.282;2023-05-14T14:17:50;5.85;;;5.45;;
27666;SDS011;15074;50.940;5.282;2023-05-14T14:20:15;7.30;;;6.80;;
27666;SDS011;15074;50.940;5.282;2023-05-14T14:22:44;6.93;;;6.40;;
27666;SDS011;15074;50.940;5.282;2023-05-14T14:25:10;6.30;;;5.80;;
27666;SDS011;15074;50.940;5.282;2023-05-14T14:27:36;6.15;;;5.65;;
27666;SDS011;15074;50.940;5.282;2023-05-14T14:30:10;6.10;;;5.53;;
27666;SDS011;15074;50.940;5.282;2023-05-14T14:32:43;6.55;;;6.05;;
27666;SDS011;15074;50.940;5.282;2023-05-14T14:35:09;6.75;;;6.25;;
27666;SDS011;15074;50.940;5.282;2023-05-14T14:37:36;6.82;;;5.85;;
27666;SDS011;15074;50.940;5.282;2023-05-14T14:40:02;8.02;;;5.43;;
27666;SDS011;15074;50.940;5.282;2023-05-14T14:42:31;6.05;;;5.47;;
27666;SDS011;15074;50.940;5.282;2023-05-14T14:44:58;6.32;;;5.72;;
27666;SDS011;15074;50.940;5.282;2023-05-14T14:47:23;6.30;;;5.90;;
27666;SDS011;15074;50.940;5.282;2023-05-14T14:49:49;6.70;;;5.95;;
27666;SDS011;15074;50.940;5.282;2023-05-14T14:52:14;7.13;;;6.63;;
27666;SDS011;15074;50.940;5.282;2023-05-14T14:54:40;6.70;;;6.10;;
27666;SDS011;15074;50.940;5.282;2023-05-14T14:57:06;7.05;;;6.55;;
27666;SDS011;15074;50.940;5.282;2023-05-14T14:59:33;6.78;;;6.32;;
27666;SDS011;15074;50.940;5.282;2023-05-14T15:01:59;7.43;;;6.93;;
27666;SDS011;15074;50.940;5.282;2023-05-14T15:04:25;7.57;;;7.00;;
27666;SDS011;15074;50.940;5.282;2023-05-14T15:06:50;6.13;;;5.72;;
27666;SDS011;15074;50.940;5.282;2023-05-14T15:09:16;7.25;;;6.63;;
27666;SDS011;15074;50.940;5.282;2023-05-14T15:11:42;6.78;;;6.28;;
27666;SDS011;15074;50.940;5.282;2023-05-14T15:14:08;6.32;;;5.78;;
27666;SDS011;15074;50.940;5.282;2023-05-14T15:16:34;6.63;;;6.05;;
27666;SDS011;15074;50.940;5.282;2023-05-14T15:18:59;6.65;;;6.07;;
27666;SDS011;15074;50.940;5.282;2023-05-14T15:21:25;7.30;;;6.70;;
27666;SDS011;15074;50.940;5.282;2023-05-14T15:23:51;6.55;;;6.15;;
27666;SDS011;15074;50.940;5.282;2023-05-14T15:26:17;6.00;;;5.50;;
27666;SDS011;15074;50.940;5.282;2023-05-14T15:28:42;5.82;;;5.43;;
27666;SDS011;15074;50.940;5.282;2023-05-14T15:31:08;6.70;;;6.10;;
27666;SDS011;15074;50.940;5.282;2023-05-14T15:33:34;5.85;;;5.43;;
27666;SDS011;15074;50.940;5.282;2023-05-14T15:36:00;5.90;;;5.30;;
27666;SDS011;15074;50.940;5.282;2023-05-14T15:38:26;5.63;;;5.22;;
27666;SDS011;15074;50.940;5.282;2023-05-14T15:40:51;5.85;;;5.05;;
27666;SDS011;15074;50.940;5.282;2023-05-14T15:43:17;6.35;;;5.85;;
27666;SDS011;15074;50.940;5.282;2023-05-14T15:45:43;6.10;;;5.50;;
27666;SDS011;15074;50.940;5.282;2023-05-14T15:48:09;6.20;;;5.70;;
27666;SDS011;15074;50.940;5.282;2023-05-14T15:50:35;5.78;;;5.28;;
27666;SDS011;15074;50.940;5.282;2023-05-14T15:53:01;7.03;;;6.40;;
27666;SDS011;15074;50.940;5.282;2023-05-14T15:55:27;6.30;;;5.82;;
27666;SDS011;15074;50.940;5.282;2023-05-14T15:57:53;6.75;;;6.18;;
27666;SDS011;15074;50.940;5.282;2023-05-14T16:00:18;6.57;;;5.97;;
27666;SDS011;15074;50.940;5.282;2023-05-14T16:02:44;7.05;;;6.22;;
27666;SDS011;15074;50.940;5.282;2023-05-14T16:05:10;6.25;;;5.85;;
27666;SDS011;15074;50.940;5.282;2023-05-14T16:07:37;6.70;;;6.07;;
27666;SDS011;15074;50.940;5.282;2023-05-14T16:10:03;7.35;;;6.85;;
27666;SDS011;15074;50.940;5.282;2023-05-14T16:12:30;6.63;;;6.13;;
27666;SDS011;15074;50.940;5.282;2023-05-14T16:14:55;6.90;;;6.30;;
27666;SDS011;15074;50.940;5.282;2023-05-14T16:17:21;7.40;;;6.75;;
27666;SDS011;15074;50.940;5.282;2023-05-14T16:19:47;7.57;;;6.88;;
27666;SDS011;15074;50.940;5.282;2023-05-14T16:22:13;9.55;;;6.72;;
27666;SDS011;15074;50.940;5.282;2023-05-14T16:24:38;10.95;;;6.57;;
27666;SDS011;15074;50.940;5.282;2023-05-14T16:27:04;9.90;;;6.65;;
27666;SDS011;15074;50.940;5.282;2023-05-14T16:29:30;6.55;;;6.05;;
27666;SDS011;15074;50.940;5.282;2023-05-14T16:31:55;6.53;;;6.03;;
27666;SDS011;15074;50.940;5.282;2023-05-14T16:34:22;6.25;;;5.75;;
27666;SDS011;15074;50.940;5.282;2023-05-14T16:36:48;6.70;;;6.25;;
27666;SDS011;15074;50.940;5.282;2023-05-14T16:39:13;6.20;;;5.70;;
27666;SDS011;15074;50.940;5.282;2023-05-14T16:41:39;7.32;;;6.63;;
27666;SDS011;15074;50.940;5.282;2023-05-14T16:44:05;7.20;;;6.55;;
27666;SDS011;15074;50.940;5.282;2023-05-14T16:46:30;9.20;;;7.10;;
27666;SDS011;15074;50.940;5.282;2023-05-14T16:48:56;8.55;;;7.95;;
27666;SDS011;15074;50.940;5.282;2023-05-14T16:51:22;8.20;;;7.40;;
27666;SDS011;15074;50.940;5.282;2023-05-14T16:53:48;8.63;;;7.65;;
27666;SDS011;15074;50.940;5.282;2023-05-14T16:56:14;8.00;;;7.40;;
27666;SDS011;15074;50.940;5.282;2023-05-14T16:58:40;7.50;;;6.80;;
27666;SDS011;15074;50.940;5.282;2023-05-14T17:01:06;8.60;;;7.80;;
27666;SDS011;15074;50.940;5.282;2023-05-14T17:03:32;9.13;;;8.32;;
27666;SDS011;15074;50.940;5.282;2023-05-14T17:05:58;9.88;;;8.98;;
27666;SDS011;15074;50.940;5.282;2023-05-14T17:08:24;10.50;;;9.70;;
27666;SDS011;15074;50.940;5.282;2023-05-14T17:10:50;10.65;;;9.85;;
27666;SDS011;15074;50.940;5.282;2023-05-14T17:13:15;12.07;;;10.88;;
27666;SDS011;15074;50.940;5.282;2023-05-14T17:15:41;12.15;;;10.85;;
27666;SDS011;15074;50.940;5.282;2023-05-14T17:18:07;11.60;;;10.63;;
27666;SDS011;15074;50.940;5.282;2023-05-14T17:20:32;12.63;;;11.43;;
27666;SDS011;15074;50.940;5.282;2023-05-14T17:22:58;12.75;;;11.55;;
27666;SDS011;15074;50.940;5.282;2023-05-14T17:25:24;14.90;;;12.63;;
27666;SDS011;15074;50.940;5.282;2023-05-14T17:27:50;12.63;;;11.52;;
27666;SDS011;15074;50.940;5.282;2023-05-14T17:30:16;13.98;;;12.73;;
27666;SDS011;15074;50.940;5.282;2023-05-14T17:32:42;15.70;;;12.82;;
27666;SDS011;15074;50.940;5.282;2023-05-14T17:35:08;12.77;;;11.88;;
27666;SDS011;15074;50.940;5.282;2023-05-14T17:37:34;13.30;;;12.10;;
27666;SDS011;15074;50.940;5.282;2023-05-14T17:40:00;18.02;;;13.07;;
27666;SDS011;15074;50.940;5.282;2023-05-14T17:42:27;17.00;;;13.13;;
27666;SDS011;15074;50.940;5.282;2023-05-14T17:44:53;20.15;;;13.60;;
27666;SDS011;15074;50.940;5.282;2023-05-14T17:47:18;16.02;;;14.43;;
27666;SDS011;15074;50.940;5.282;2023-05-14T17:49:45;18.25;;;14.82;;
27666;SDS011;15074;50.940;5.282;2023-05-14T17:52:11;17.00;;;14.80;;
27666;SDS011;15074;50.940;5.282;2023-05-14T17:54:37;16.08;;;14.82;;
27666;SDS011;15074;50.940;5.282;2023-05-14T17:57:03;30.55;;;15.57;;
27666;SDS011;15074;50.940;5.282;2023-05-14T17:59:28;21.50;;;14.80;;
27666;SDS011;15074;50.940;5.282;2023-05-14T18:01:54;17.08;;;15.32;;
27666;SDS011;15074;50.940;5.282;2023-05-14T18:04:20;17.23;;;15.43;;
27666;SDS011;15074;50.940;5.282;2023-05-14T18:06:45;22.23;;;15.63;;
27666;SDS011;15074;50.940;5.282;2023-05-14T18:09:11;18.10;;;15.73;;
27666;SDS011;15074;50.940;5.282;2023-05-14T18:11:37;22.02;;;16.25;;
27666;SDS011;15074;50.940;5.282;2023-05-14T18:14:03;20.50;;;17.23;;
27666;SDS011;15074;50.940;5.282;2023-05-14T18:16:28;18.70;;;17.00;;
27666;SDS011;15074;50.940;5.282;2023-05-14T18:18:54;18.52;;;16.70;;
27666;SDS011;15074;50.940;5.282;2023-05-14T18:21:20;25.40;;;17.55;;
27666;SDS011;15074;50.940;5.282;2023-05-14T18:23:46;23.33;;;17.33;;
27666;SDS011;15074;50.940;5.282;2023-05-14T18:26:12;21.13;;;16.35;;
27666;SDS011;15074;50.940;5.282;2023-05-14T18:28:37;20.98;;;15.85;;
27666;SDS011;15074;50.940;5.282;2023-05-14T18:31:03;17.75;;;16.17;;
27666;SDS011;15074;50.940;5.282;2023-05-14T18:33:29;26.88;;;17.00;;
27666;SDS011;15074;50.940;5.282;2023-05-14T18:35:55;19.38;;;17.33;;
27666;SDS011;15074;50.940;5.282;2023-05-14T18:38:22;25.17;;;16.30;;
27666;SDS011;15074;50.940;5.282;2023-05-14T18:40:50;18.80;;;16.77;;
27666;SDS011;15074;50.940;5.282;2023-05-14T18:43:16;23.92;;;16.83;;
27666;SDS011;15074;50.940;5.282;2023-05-14T18:45:43;17.97;;;16.07;;
27666;SDS011;15074;50.940;5.282;2023-05-14T18:48:11;22.45;;;17.70;;
27666;SDS011;15074;50.940;5.282;2023-05-14T18:50:37;18.55;;;15.73;;
27666;SDS011;15074;50.940;5.282;2023-05-14T18:53:03;18.60;;;16.67;;
27666;SDS011;15074;50.940;5.282;2023-05-14T18:55:28;18.38;;;16.48;;